Accueil
METAR-TAF:

METAR-TAF

Aéroports :

Stanly County Airport

Albemarle, Caroline du Nord, États-Unis

latitude: 35-25-00N, longitude: 080-09-03W, altitude: 186 m

Observation

Le bulletin a été fait il y a 19 minutes, à 22:15 UTC
Vent 11 kt de ouest/sud-ouest avec des rafales jusqu'à 19 kt
Température 10°C
Humidité 40%
Pression 1015 hPa
Visibilité: 16.1 km
Ciel couvert à une hauteur de 6500 ft

METAR: KVUJ 282215Z AUTO 24011G19KT 10SM OVC065 10/M03 A2998 RMK AO2 T01001030

Heure: 17:34 (22:34 UTC)


TAF: absent

Observations et prévisions météorologiques de plus de 4000 aéroports (messages METAR et TAF).

Les stations disponibles sont représentées par des disques jaunes et rouges sur la carte.

Passer la souris dessus pour voir le nom de la station.

Cliquer dessus pour voir les observations et prévisions météorologiques.

Pour changer de carte: cliquez sur les boutons verts avec une croix noire pour zoomer, sur le bouton vert avec un tiret pour effectuer un zoom arrière, ou sur les flèches vertes pour les cartes adjacentes.


METAR-TAF: